sensor_id;sensor_type;location;lat;lon;timestamp;pressure;altitude;pressure_sealevel;temperature;humidity
55675;BME280;41562;44.330;23.802;2022-07-03T00:01:32;100441.72;;;21.99;100.00
55675;BME280;41562;44.330;23.802;2022-07-03T00:04:00;100442.91;;;21.90;100.00
55675;BME280;41562;44.330;23.802;2022-07-03T00:06:30;100442.47;;;21.88;100.00
55675;BME280;41562;44.330;23.802;2022-07-03T00:08:59;100448.25;;;21.86;100.00
55675;BME280;41562;44.330;23.802;2022-07-03T00:11:27;100447.91;;;21.88;100.00
55675;BME280;41562;44.330;23.802;2022-07-03T00:13:55;100449.63;;;21.80;100.00
55675;BME280;41562;44.330;23.802;2022-07-03T00:16:33;100443.63;;;21.75;100.00
55675;BME280;41562;44.330;23.802;2022-07-03T00:19:09;100451.09;;;21.78;100.00
55675;BME280;41562;44.330;23.802;2022-07-03T00:21:55;100460.28;;;21.85;100.00
55675;BME280;41562;44.330;23.802;2022-07-03T00:24:32;100463.91;;;21.77;100.00
55675;BME280;41562;44.330;23.802;2022-07-03T00:27:03;100469.34;;;21.77;100.00
55675;BME280;41562;44.330;23.802;2022-07-03T00:29:45;100486.16;;;21.79;100.00
55675;BME280;41562;44.330;23.802;2022-07-03T00:32:22;100473.56;;;21.75;100.00
55675;BME280;41562;44.330;23.802;2022-07-03T00:34:54;100480.56;;;21.88;100.00
55675;BME280;41562;44.330;23.802;2022-07-03T00:37:31;100483.19;;;21.84;100.00
55675;BME280;41562;44.330;23.802;2022-07-03T00:39:59;100478.22;;;21.86;100.00
55675;BME280;41562;44.330;23.802;2022-07-03T00:42:40;100490.47;;;21.92;100.00
55675;BME280;41562;44.330;23.802;2022-07-03T00:45:15;100489.44;;;21.85;100.00
55675;BME280;41562;44.330;23.802;2022-07-03T00:47:53;100497.50;;;21.93;100.00
55675;BME280;41562;44.330;23.802;2022-07-03T00:50:26;100500.66;;;21.83;100.00
55675;BME280;41562;44.330;23.802;2022-07-03T00:53:05;100497.03;;;21.91;100.00
55675;BME280;41562;44.330;23.802;2022-07-03T00:55:41;100500.56;;;21.80;100.00
55675;BME280;41562;44.330;23.802;2022-07-03T00:58:17;100502.91;;;21.69;100.00
55675;BME280;41562;44.330;23.802;2022-07-03T01:00:52;100501.78;;;21.70;100.00
55675;BME280;41562;44.330;23.802;2022-07-03T01:03:42;100498.97;;;21.66;100.00
55675;BME280;41562;44.330;23.802;2022-07-03T01:06:15;100492.25;;;21.64;100.00
55675;BME280;41562;44.330;23.802;2022-07-03T01:08:47;100495.91;;;21.68;100.00
55675;BME280;41562;44.330;23.802;2022-07-03T01:11:38;100495.66;;;21.61;100.00
55675;BME280;41562;44.330;23.802;2022-07-03T01:14:35;100497.13;;;21.58;100.00
55675;BME280;41562;44.330;23.802;2022-07-03T01:17:25;100496.78;;;21.48;100.00
55675;BME280;41562;44.330;23.802;2022-07-03T01:20:05;100509.72;;;21.75;100.00
55675;BME280;41562;44.330;23.802;2022-07-03T01:22:44;100505.69;;;22.30;100.00
55675;BME280;41562;44.330;23.802;2022-07-03T01:25:43;100498.75;;;22.84;100.00
55675;BME280;41562;44.330;23.802;2022-07-03T01:28:16;100503.34;;;23.24;100.00
55675;BME280;41562;44.330;23.802;2022-07-03T01:30:51;100499.25;;;24.24;95.01
55675;BME280;41562;44.330;23.802;2022-07-03T01:33:24;100491.25;;;23.84;97.61
55675;BME280;41562;44.330;23.802;2022-07-03T01:36:05;100490.09;;;23.38;99.96
55675;BME280;41562;44.330;23.802;2022-07-03T01:38:43;100487.66;;;23.21;100.00
55675;BME280;41562;44.330;23.802;2022-07-03T01:41:17;100496.28;;;23.67;98.25
55675;BME280;41562;44.330;23.802;2022-07-03T01:43:50;100489.38;;;23.41;99.69
55675;BME280;41562;44.330;23.802;2022-07-03T01:46:38;100487.03;;;23.12;99.96
55675;BME280;41562;44.330;23.802;2022-07-03T01:49:10;100494.28;;;23.20;100.00
55675;BME280;41562;44.330;23.802;2022-07-03T01:51:39;100484.81;;;23.45;98.83
55675;BME280;41562;44.330;23.802;2022-07-03T01:54:16;100493.47;;;23.79;95.88
55675;BME280;41562;44.330;23.802;2022-07-03T01:56:46;100496.81;;;23.56;97.55
55675;BME280;41562;44.330;23.802;2022-07-03T01:59:18;100493.03;;;23.61;96.79
55675;BME280;41562;44.330;23.802;2022-07-03T02:01:53;100495.84;;;23.49;97.88
55675;BME280;41562;44.330;23.802;2022-07-03T02:05:15;100494.28;;;23.20;99.86
55675;BME280;41562;44.330;23.802;2022-07-03T02:07:47;100486.59;;;23.53;97.20
55675;BME280;41562;44.330;23.802;2022-07-03T02:10:26;100479.63;;;23.72;95.64
55675;BME280;41562;44.330;23.802;2022-07-03T02:13:01;100488.72;;;23.76;95.00
55675;BME280;41562;44.330;23.802;2022-07-03T02:15:36;100481.19;;;23.41;96.75
55675;BME280;41562;44.330;23.802;2022-07-03T02:18:24;100475.69;;;23.10;98.54
55675;BME280;41562;44.330;23.802;2022-07-03T02:23:51;100479.59;;;23.40;97.62
55675;BME280;41562;44.330;23.802;2022-07-03T02:26:27;100475.28;;;23.39;97.58
55675;BME280;41562;44.330;23.802;2022-07-03T02:29:15;100477.31;;;23.42;97.92
55675;BME280;41562;44.330;23.802;2022-07-03T02:31:57;100471.41;;;23.40;97.39
55675;BME280;41562;44.330;23.802;2022-07-03T02:34:30;100472.25;;;23.13;98.95
55675;BME280;41562;44.330;23.802;2022-07-03T02:37:18;100472.94;;;23.10;98.59
55675;BME280;41562;44.330;23.802;2022-07-03T02:40:04;100473.88;;;22.86;100.00
55675;BME280;41562;44.330;23.802;2022-07-03T02:45:23;100469.47;;;22.81;100.00
55675;BME280;41562;44.330;23.802;2022-07-03T02:48:04;100470.19;;;23.38;97.85
55675;BME280;41562;44.330;23.802;2022-07-03T02:50:37;100466.88;;;23.16;98.54
55675;BME280;41562;44.330;23.802;2022-07-03T02:53:52;100471.63;;;23.47;96.84
55675;BME280;41562;44.330;23.802;2022-07-03T02:56:50;100476.72;;;23.05;99.67
55675;BME280;41562;44.330;23.802;2022-07-03T02:59:45;100473.72;;;23.38;97.88
55675;BME280;41562;44.330;23.802;2022-07-03T03:03:08;100481.59;;;23.27;97.94
55675;BME280;41562;44.330;23.802;2022-07-03T03:08:24;100485.44;;;23.11;99.81
55675;BME280;41562;44.330;23.802;2022-07-03T03:10:59;100478.75;;;23.08;99.35
55675;BME280;41562;44.330;23.802;2022-07-03T03:13:31;100477.72;;;23.13;99.56
55675;BME280;41562;44.330;23.802;2022-07-03T03:16:09;100469.84;;;23.39;97.26
55675;BME280;41562;44.330;23.802;2022-07-03T03:18:40;100475.59;;;23.22;99.11
55675;BME280;41562;44.330;23.802;2022-07-03T03:21:17;100484.22;;;23.52;96.33
55675;BME280;41562;44.330;23.802;2022-07-03T03:23:57;100483.06;;;23.69;94.78
55675;BME280;41562;44.330;23.802;2022-07-03T03:26:28;100471.50;;;23.44;96.27
55675;BME280;41562;44.330;23.802;2022-07-03T03:29:04;100466.41;;;23.42;96.36
55675;BME280;41562;44.330;23.802;2022-07-03T03:31:35;100468.53;;;23.49;95.24
55675;BME280;41562;44.330;23.802;2022-07-03T03:34:03;100468.75;;;23.28;96.74
55675;BME280;41562;44.330;23.802;2022-07-03T03:36:34;100473.78;;;23.42;96.16
55675;BME280;41562;44.330;23.802;2022-07-03T03:39:11;100478.72;;;23.36;96.68
55675;BME280;41562;44.330;23.802;2022-07-03T03:41:45;100470.94;;;23.22;98.13
55675;BME280;41562;44.330;23.802;2022-07-03T03:44:22;100464.72;;;23.38;97.66
55675;BME280;41562;44.330;23.802;2022-07-03T03:46:57;100467.84;;;23.68;95.03
55675;BME280;41562;44.330;23.802;2022-07-03T03:49:28;100469.78;;;23.83;93.75
55675;BME280;41562;44.330;23.802;2022-07-03T03:51:59;100470.50;;;23.64;95.96
55675;BME280;41562;44.330;23.802;2022-07-03T03:54:33;100478.66;;;23.80;94.53
55675;BME280;41562;44.330;23.802;2022-07-03T03:57:24;100485.00;;;23.84;93.72
55675;BME280;41562;44.330;23.802;2022-07-03T03:59:55;100484.75;;;23.89;93.71
55675;BME280;41562;44.330;23.802;2022-07-03T04:02:29;100489.84;;;23.90;93.78
55675;BME280;41562;44.330;23.802;2022-07-03T04:05:06;100487.56;;;23.77;94.55
55675;BME280;41562;44.330;23.802;2022-07-03T04:07:49;100491.69;;;23.55;96.78
55675;BME280;41562;44.330;23.802;2022-07-03T04:10:18;100494.34;;;23.67;95.59
55675;BME280;41562;44.330;23.802;2022-07-03T04:12:52;100493.91;;;23.81;94.57
55675;BME280;41562;44.330;23.802;2022-07-03T04:15:20;100496.69;;;23.37;97.48
55675;BME280;41562;44.330;23.802;2022-07-03T04:17:57;100494.56;;;23.46;98.71
55675;BME280;41562;44.330;23.802;2022-07-03T04:20:31;100491.25;;;23.53;97.68
55675;BME280;41562;44.330;23.802;2022-07-03T04:22:59;100493.56;;;23.23;99.93
55675;BME280;41562;44.330;23.802;2022-07-03T04:25:31;100478.81;;;22.96;100.00
55675;BME280;41562;44.330;23.802;2022-07-03T04:28:10;100480.59;;;22.76;100.00
55675;BME280;41562;44.330;23.802;2022-07-03T04:30:52;100483.44;;;23.51;99.22
55675;BME280;41562;44.330;23.802;2022-07-03T04:33:26;100479.38;;;23.61;97.80
55675;BME280;41562;44.330;23.802;2022-07-03T04:36:00;100479.47;;;23.49;97.64
55675;BME280;41562;44.330;23.802;2022-07-03T04:38:32;100483.59;;;23.58;99.07
55675;BME280;41562;44.330;23.802;2022-07-03T04:41:00;100482.63;;;23.82;95.54
55675;BME280;41562;44.330;23.802;2022-07-03T04:43:30;100477.50;;;23.65;97.03
55675;BME280;41562;44.330;23.802;2022-07-03T04:46:03;100481.72;;;23.31;98.84
55675;BME280;41562;44.330;23.802;2022-07-03T04:48:40;100482.84;;;23.46;98.20
55675;BME280;41562;44.330;23.802;2022-07-03T04:51:07;100475.44;;;23.46;99.64
55675;BME280;41562;44.330;23.802;2022-07-03T04:53:39;100470.25;;;23.41;97.88
55675;BME280;41562;44.330;23.802;2022-07-03T04:56:10;100483.44;;;23.51;97.84
55675;BME280;41562;44.330;23.802;2022-07-03T04:58:38;100486.50;;;23.50;97.80
55675;BME280;41562;44.330;23.802;2022-07-03T05:01:05;100486.91;;;23.36;99.05
55675;BME280;41562;44.330;23.802;2022-07-03T05:03:39;100491.91;;;23.34;99.47
55675;BME280;41562;44.330;23.802;2022-07-03T05:06:11;100491.22;;;23.37;99.67
55675;BME280;41562;44.330;23.802;2022-07-03T05:08:49;100491.50;;;23.32;99.64
55675;BME280;41562;44.330;23.802;2022-07-03T05:11:17;100492.28;;;23.33;100.00
55675;BME280;41562;44.330;23.802;2022-07-03T05:13:48;100495.84;;;23.80;97.69
55675;BME280;41562;44.330;23.802;2022-07-03T05:16:22;100496.44;;;24.05;95.41
55675;BME280;41562;44.330;23.802;2022-07-03T05:18:59;100496.25;;;23.98;96.04
55675;BME280;41562;44.330;23.802;2022-07-03T05:21:33;100491.25;;;23.84;97.51
55675;BME280;41562;44.330;23.802;2022-07-03T05:24:05;100502.53;;;23.67;99.50
55675;BME280;41562;44.330;23.802;2022-07-03T05:26:57;100495.84;;;23.49;100.00
55675;BME280;41562;44.330;23.802;2022-07-03T05:29:35;100498.41;;;23.57;100.00
55675;BME280;41562;44.330;23.802;2022-07-03T05:32:23;100505.97;;;23.80;97.98
55675;BME280;41562;44.330;23.802;2022-07-03T05:34:51;100501.13;;;23.89;96.67
55675;BME280;41562;44.330;23.802;2022-07-03T05:37:26;100505.97;;;23.80;98.34
55675;BME280;41562;44.330;23.802;2022-07-03T05:40:01;100507.53;;;24.12;95.94
55675;BME280;41562;44.330;23.802;2022-07-03T05:42:36;100504.41;;;24.45;92.96
55675;BME280;41562;44.330;23.802;2022-07-03T05:45:16;100506.34;;;24.44;93.83
55675;BME280;41562;44.330;23.802;2022-07-03T05:47:47;100496.69;;;24.31;94.32
55675;BME280;41562;44.330;23.802;2022-07-03T05:50:22;100504.09;;;24.31;95.71
55675;BME280;41562;44.330;23.802;2022-07-03T05:52:56;100507.97;;;24.84;90.46
55675;BME280;41562;44.330;23.802;2022-07-03T05:55:24;100509.75;;;24.76;90.17
55675;BME280;41562;44.330;23.802;2022-07-03T05:57:55;100506.88;;;24.89;90.02
55675;BME280;41562;44.330;23.802;2022-07-03T06:00:32;100505.22;;;24.84;89.73
55675;BME280;41562;44.330;23.802;2022-07-03T06:03:06;100504.84;;;24.85;89.67
55675;BME280;41562;44.330;23.802;2022-07-03T06:05:41;100508.75;;;24.84;91.98
55675;BME280;41562;44.330;23.802;2022-07-03T06:08:17;100512.72;;;25.06;90.17
55675;BME280;41562;44.330;23.802;2022-07-03T06:10:51;100514.16;;;25.19;88.52
55675;BME280;41562;44.330;23.802;2022-07-03T06:13:22;100513.94;;;25.28;87.45
55675;BME280;41562;44.330;23.802;2022-07-03T06:15:52;100517.28;;;25.41;88.50
55675;BME280;41562;44.330;23.802;2022-07-03T06:18:20;100519.41;;;25.28;87.82
55675;BME280;41562;44.330;23.802;2022-07-03T06:20:57;100512.34;;;25.27;88.83
55675;BME280;41562;44.330;23.802;2022-07-03T06:23:29;100520.16;;;25.48;86.88
55675;BME280;41562;44.330;23.802;2022-07-03T06:26:25;100508.66;;;25.61;86.67
55675;BME280;41562;44.330;23.802;2022-07-03T06:28:56;100518.75;;;25.80;87.40
55675;BME280;41562;44.330;23.802;2022-07-03T06:31:28;100515.50;;;25.71;85.06
55675;BME280;41562;44.330;23.802;2022-07-03T06:34:00;100509.06;;;25.86;83.94
55675;BME280;41562;44.330;23.802;2022-07-03T06:36:36;100510.91;;;26.01;82.92
55675;BME280;41562;44.330;23.802;2022-07-03T06:39:20;100510.66;;;26.10;81.54
55675;BME280;41562;44.330;23.802;2022-07-03T06:41:51;100513.19;;;26.22;80.36
55675;BME280;41562;44.330;23.802;2022-07-03T06:44:29;100512.88;;;26.27;80.07
55675;BME280;41562;44.330;23.802;2022-07-03T06:46:57;100511.97;;;26.46;79.71
55675;BME280;41562;44.330;23.802;2022-07-03T06:49:29;100513.78;;;26.35;79.24
55675;BME280;41562;44.330;23.802;2022-07-03T06:52:04;100513.88;;;26.42;78.93
55675;BME280;41562;44.330;23.802;2022-07-03T06:54:36;100519.41;;;26.75;79.77
55675;BME280;41562;44.330;23.802;2022-07-03T06:57:11;100509.88;;;26.66;77.17
55675;BME280;41562;44.330;23.802;2022-07-03T06:59:48;100501.38;;;26.74;77.30
55675;BME280;41562;44.330;23.802;2022-07-03T07:02:22;100505.81;;;26.86;78.13
55675;BME280;41562;44.330;23.802;2022-07-03T07:04:53;100501.69;;;26.99;77.80
55675;BME280;41562;44.330;23.802;2022-07-03T07:07:32;100505.03;;;27.19;77.51
55675;BME280;41562;44.330;23.802;2022-07-03T07:10:07;100514.31;;;27.44;74.90
55675;BME280;41562;44.330;23.802;2022-07-03T07:12:37;100510.81;;;27.47;74.79
55675;BME280;41562;44.330;23.802;2022-07-03T07:15:14;100507.16;;;27.77;73.98
55675;BME280;41562;44.330;23.802;2022-07-03T07:17:48;100507.31;;;27.94;74.26
55675;BME280;41562;44.330;23.802;2022-07-03T07:20:28;100500.41;;;27.67;72.87
55675;BME280;41562;44.330;23.802;2022-07-03T07:23:05;100505.19;;;27.74;74.59
55675;BME280;41562;44.330;23.802;2022-07-03T07:25:36;100511.50;;;27.78;73.90
55675;BME280;41562;44.330;23.802;2022-07-03T07:28:26;100508.19;;;28.09;72.42
55675;BME280;41562;44.330;23.802;2022-07-03T07:31:01;100507.34;;;28.01;72.65
55675;BME280;41562;44.330;23.802;2022-07-03T07:33:37;100508.75;;;28.25;73.96
55675;BME280;41562;44.330;23.802;2022-07-03T07:36:08;100512.28;;;28.29;70.35
55675;BME280;41562;44.330;23.802;2022-07-03T07:38:42;100510.69;;;28.25;67.20
55675;BME280;41562;44.330;23.802;2022-07-03T07:41:20;100507.63;;;28.40;69.80
55675;BME280;41562;44.330;23.802;2022-07-03T07:43:52;100503.00;;;28.59;72.23
55675;BME280;41562;44.330;23.802;2022-07-03T07:46:23;100513.97;;;28.45;71.17
55675;BME280;41562;44.330;23.802;2022-07-03T07:48:57;100503.56;;;28.17;70.18
55675;BME280;41562;44.330;23.802;2022-07-03T07:51:30;100510.47;;;28.55;70.30
55675;BME280;41562;44.330;23.802;2022-07-03T07:54:10;100506.97;;;28.65;70.41
55675;BME280;41562;44.330;23.802;2022-07-03T07:56:49;100501.50;;;28.68;69.32
55675;BME280;41562;44.330;23.802;2022-07-03T07:59:20;100497.66;;;28.87;68.41
55675;BME280;41562;44.330;23.802;2022-07-03T08:02:00;100497.66;;;28.87;67.31
55675;BME280;41562;44.330;23.802;2022-07-03T08:04:31;100506.31;;;28.96;67.20
55675;BME280;41562;44.330;23.802;2022-07-03T08:07:15;100501.63;;;29.04;67.37
55675;BME280;41562;44.330;23.802;2022-07-03T08:09:57;100502.03;;;29.06;61.92
55675;BME280;41562;44.330;23.802;2022-07-03T08:12:36;100497.34;;;29.24;61.87
55675;BME280;41562;44.330;23.802;2022-07-03T08:15:16;100497.72;;;29.15;63.44
55675;BME280;41562;44.330;23.802;2022-07-03T08:17:50;100496.19;;;29.32;64.43
55675;BME280;41562;44.330;23.802;2022-07-03T08:20:24;100493.03;;;29.19;63.96
55675;BME280;41562;44.330;23.802;2022-07-03T08:22:57;100485.59;;;29.41;62.23
55675;BME280;41562;44.330;23.802;2022-07-03T08:25:38;100485.59;;;29.63;66.28
55675;BME280;41562;44.330;23.802;2022-07-03T08:28:22;100483.25;;;29.61;65.48
55675;BME280;41562;44.330;23.802;2022-07-03T08:30:59;100491.91;;;29.63;64.75
55675;BME280;41562;44.330;23.802;2022-07-03T08:33:40;100487.97;;;29.50;65.29
55675;BME280;41562;44.330;23.802;2022-07-03T08:36:16;100496.97;;;29.33;62.35
55675;BME280;41562;44.330;23.802;2022-07-03T08:38:49;100491.91;;;29.56;61.41
55675;BME280;41562;44.330;23.802;2022-07-03T08:41:23;100496.25;;;29.68;65.77
55675;BME280;41562;44.330;23.802;2022-07-03T08:43:59;100487.97;;;29.57;59.06
55675;BME280;41562;44.330;23.802;2022-07-03T08:46:36;100497.03;;;29.75;60.82
55675;BME280;41562;44.330;23.802;2022-07-03T08:49:13;100493.88;;;29.59;61.13
55675;BME280;41562;44.330;23.802;2022-07-03T08:52:01;100492.69;;;29.74;59.84
55675;BME280;41562;44.330;23.802;2022-07-03T08:54:41;100491.91;;;29.74;59.09
55675;BME280;41562;44.330;23.802;2022-07-03T08:57:17;100493.88;;;29.73;58.04
55675;BME280;41562;44.330;23.802;2022-07-03T08:59:49;100488.38;;;29.77;59.85
55675;BME280;41562;44.330;23.802;2022-07-03T09:02:29;100482.44;;;29.85;68.56
55675;BME280;41562;44.330;23.802;2022-07-03T09:05:01;100480.88;;;29.77;64.74
55675;BME280;41562;44.330;23.802;2022-07-03T09:07:39;100484.44;;;29.92;62.29
55675;BME280;41562;44.330;23.802;2022-07-03T09:10:18;100480.47;;;29.89;55.70
55675;BME280;41562;44.330;23.802;2022-07-03T09:13:10;100482.06;;;30.01;54.92
55675;BME280;41562;44.330;23.802;2022-07-03T09:15:47;100468.63;;;30.10;54.08
55675;BME280;41562;44.330;23.802;2022-07-03T09:18:39;100459.59;;;29.99;56.14
55675;BME280;41562;44.330;23.802;2022-07-03T09:21:19;100459.22;;;30.01;60.43
55675;BME280;41562;44.330;23.802;2022-07-03T09:23:52;100463.94;;;29.75;62.28
55675;BME280;41562;44.330;23.802;2022-07-03T09:26:19;100466.31;;;29.77;61.30
55675;BME280;41562;44.330;23.802;2022-07-03T09:28:56;100466.31;;;29.77;61.57
55675;BME280;41562;44.330;23.802;2022-07-03T09:31:32;100463.16;;;30.03;63.22
55675;BME280;41562;44.330;23.802;2022-07-03T09:34:06;100463.53;;;30.09;63.35
55675;BME280;41562;44.330;23.802;2022-07-03T09:36:45;100459.59;;;29.81;61.20
55675;BME280;41562;44.330;23.802;2022-07-03T09:39:31;100457.63;;;30.07;63.46
55675;BME280;41562;44.330;23.802;2022-07-03T09:42:08;100448.56;;;30.06;62.90
55675;BME280;41562;44.330;23.802;2022-07-03T09:44:42;100443.00;;;30.17;61.89
55675;BME280;41562;44.330;23.802;2022-07-03T09:47:20;100448.94;;;30.12;63.12
55675;BME280;41562;44.330;23.802;2022-07-03T09:57:41;100441.44;;;30.19;60.65
55675;BME280;41562;44.330;23.802;2022-07-03T10:00:29;100439.88;;;30.08;59.60
55675;BME280;41562;44.330;23.802;2022-07-03T10:03:07;100435.16;;;30.08;60.21
55675;BME280;41562;44.330;23.802;2022-07-03T10:05:42;100435.50;;;30.17;58.71
55675;BME280;41562;44.330;23.802;2022-07-03T10:08:14;100426.44;;;30.24;59.32
55675;BME280;41562;44.330;23.802;2022-07-03T10:10:47;100431.94;;;30.34;59.29
55675;BME280;41562;44.330;23.802;2022-07-03T10:13:18;100428.41;;;30.20;58.56
55675;BME280;41562;44.330;23.802;2022-07-03T10:15:46;100421.34;;;30.15;57.52
55675;BME280;41562;44.330;23.802;2022-07-03T10:18:28;100416.19;;;30.21;57.88
55675;BME280;41562;44.330;23.802;2022-07-03T10:21:05;100415.75;;;30.29;57.69
55675;BME280;41562;44.330;23.802;2022-07-03T10:23:43;100404.38;;;30.20;58.15
55675;BME280;41562;44.330;23.802;2022-07-03T10:26:15;100402.88;;;29.87;56.42
55675;BME280;41562;44.330;23.802;2022-07-03T10:28:50;100400.06;;;30.12;57.28
55675;BME280;41562;44.330;23.802;2022-07-03T10:31:19;100395.75;;;30.04;57.64
55675;BME280;41562;44.330;23.802;2022-07-03T10:33:57;100385.84;;;30.17;55.44
55675;BME280;41562;44.330;23.802;2022-07-03T10:36:31;100390.22;;;30.04;56.42
55675;BME280;41562;44.330;23.802;2022-07-03T10:39:07;100381.94;;;30.11;55.45
55675;BME280;41562;44.330;23.802;2022-07-03T10:41:44;100375.63;;;30.11;55.29
55675;BME280;41562;44.330;23.802;2022-07-03T10:44:14;100379.16;;;30.18;56.25
55675;BME280;41562;44.330;23.802;2022-07-03T10:46:45;100379.94;;;30.22;55.75
55675;BME280;41562;44.330;23.802;2022-07-03T10:49:27;100376.81;;;30.13;55.43
55675;BME280;41562;44.330;23.802;2022-07-03T10:51:57;100372.44;;;30.19;58.69
55675;BME280;41562;44.330;23.802;2022-07-03T10:54:33;100366.94;;;30.19;56.11
55675;BME280;41562;44.330;23.802;2022-07-03T10:57:04;100368.41;;;30.38;56.34
55675;BME280;41562;44.330;23.802;2022-07-03T11:05:25;100369.19;;;30.49;53.60
55675;BME280;41562;44.330;23.802;2022-07-03T11:15:33;100361.25;;;30.58;55.05
55675;BME280;41562;44.330;23.802;2022-07-03T11:36:25;100355.59;;;30.76;53.44
55675;BME280;41562;44.330;23.802;2022-07-03T11:39:09;100354.84;;;30.72;51.70
55675;BME280;41562;44.330;23.802;2022-07-03T11:44:15;100343.88;;;30.61;54.53
55675;BME280;41562;44.330;23.802;2022-07-03T11:46:47;100337.41;;;30.82;52.59
55675;BME280;41562;44.330;23.802;2022-07-03T11:49:23;100336.63;;;30.82;51.84
55675;BME280;41562;44.330;23.802;2022-07-03T11:52:04;100330.00;;;30.72;52.09
55675;BME280;41562;44.330;23.802;2022-07-03T11:54:52;100325.28;;;30.69;51.49
55675;BME280;41562;44.330;23.802;2022-07-03T11:57:19;100324.09;;;30.70;50.33
55675;BME280;41562;44.330;23.802;2022-07-03T12:00:13;100316.22;;;30.68;50.39
55675;BME280;41562;44.330;23.802;2022-07-03T12:02:55;100302.84;;;30.63;50.13
55675;BME280;41562;44.330;23.802;2022-07-03T12:05:23;100315.38;;;30.79;51.78
55675;BME280;41562;44.330;23.802;2022-07-03T12:08:05;100308.97;;;30.89;52.18
55675;BME280;41562;44.330;23.802;2022-07-03T12:10:46;100307.38;;;30.91;51.71
55675;BME280;41562;44.330;23.802;2022-07-03T12:13:27;100298.75;;;30.86;49.99
55675;BME280;41562;44.330;23.802;2022-07-03T12:16:15;100305.44;;;30.85;50.15
55675;BME280;41562;44.330;23.802;2022-07-03T12:18:54;100304.91;;;31.04;50.04
55675;BME280;41562;44.330;23.802;2022-07-03T12:21:25;100296.72;;;30.90;48.49
55675;BME280;41562;44.330;23.802;2022-07-03T12:24:12;100288.81;;;30.92;48.27
55675;BME280;41562;44.330;23.802;2022-07-03T12:26:48;100286.72;;;31.10;49.79
55675;BME280;41562;44.330;23.802;2022-07-03T12:29:27;100297.34;;;31.11;49.01
55675;BME280;41562;44.330;23.802;2022-07-03T12:31:57;100300.47;;;31.17;46.51
55675;BME280;41562;44.330;23.802;2022-07-03T12:34:26;100291.41;;;31.13;46.18
55675;BME280;41562;44.330;23.802;2022-07-03T12:36:55;100291.38;;;31.17;46.09
55675;BME280;41562;44.330;23.802;2022-07-03T12:39:47;100282.41;;;31.05;46.06
55675;BME280;41562;44.330;23.802;2022-07-03T12:42:22;100278.84;;;31.01;46.92
55675;BME280;41562;44.330;23.802;2022-07-03T12:45:11;100274.13;;;31.02;47.59
55675;BME280;41562;44.330;23.802;2022-07-03T12:48:00;100275.28;;;31.08;49.37
55675;BME280;41562;44.330;23.802;2022-07-03T12:50:49;100277.97;;;31.15;46.07
55675;BME280;41562;44.330;23.802;2022-07-03T12:53:32;100270.06;;;31.17;51.61
55675;BME280;41562;44.330;23.802;2022-07-03T12:56:05;100262.59;;;31.14;49.00
55675;BME280;41562;44.330;23.802;2022-07-03T12:58:36;100251.09;;;31.19;50.28
55675;BME280;41562;44.330;23.802;2022-07-03T13:01:29;100255.34;;;31.27;48.39
55675;BME280;41562;44.330;23.802;2022-07-03T13:03:57;100243.97;;;31.22;47.81
55675;BME280;41562;44.330;23.802;2022-07-03T13:06:35;100248.31;;;31.19;48.84
55675;BME280;41562;44.330;23.802;2022-07-03T13:09:08;100240.81;;;31.20;48.97
55675;BME280;41562;44.330;23.802;2022-07-03T13:11:45;100240.69;;;31.30;50.81
55675;BME280;41562;44.330;23.802;2022-07-03T13:14:17;100246.22;;;31.30;47.49
55675;BME280;41562;44.330;23.802;2022-07-03T13:16:51;100239.75;;;31.10;48.48
55675;BME280;41562;44.330;23.802;2022-07-03T13:19:28;100237.72;;;31.14;50.66
55675;BME280;41562;44.330;23.802;2022-07-03T13:22:09;100231.75;;;31.19;50.16
55675;BME280;41562;44.330;23.802;2022-07-03T13:24:39;100219.38;;;31.31;50.11
55675;BME280;41562;44.330;23.802;2022-07-03T13:27:15;100222.44;;;31.40;51.38
55675;BME280;41562;44.330;23.802;2022-07-03T13:29:49;100220.88;;;31.39;47.40
55675;BME280;41562;44.330;23.802;2022-07-03T13:32:17;100222.38;;;31.43;48.00
55675;BME280;41562;44.330;23.802;2022-07-03T13:34:47;100226.00;;;31.40;48.71
55675;BME280;41562;44.330;23.802;2022-07-03T13:37:18;100234.66;;;31.42;48.87
55675;BME280;41562;44.330;23.802;2022-07-03T13:39:49;100236.78;;;31.28;46.75
55675;BME280;41562;44.330;23.802;2022-07-03T13:42:20;100246.59;;;31.32;46.79
55675;BME280;41562;44.330;23.802;2022-07-03T13:44:50;100248.03;;;31.10;46.77
55675;BME280;41562;44.330;23.802;2022-07-03T13:47:23;100244.25;;;30.90;46.60
55675;BME280;41562;44.330;23.802;2022-07-03T13:50:04;100239.28;;;30.70;48.96
55675;BME280;41562;44.330;23.802;2022-07-03T13:52:54;100232.28;;;30.59;48.34
55675;BME280;41562;44.330;23.802;2022-07-03T13:55:39;100230.25;;;30.66;47.73
55675;BME280;41562;44.330;23.802;2022-07-03T13:58:27;100229.44;;;30.69;47.94
55675;BME280;41562;44.330;23.802;2022-07-03T14:01:29;100232.56;;;30.71;51.80
55675;BME280;41562;44.330;23.802;2022-07-03T14:04:17;100225.78;;;30.80;50.33
55675;BME280;41562;44.330;23.802;2022-07-03T14:06:52;100236.19;;;30.65;51.30
55675;BME280;41562;44.330;23.802;2022-07-03T14:09:27;100239.84;;;30.44;51.60
55675;BME280;41562;44.330;23.802;2022-07-03T14:11:54;100241.56;;;30.24;53.78
55675;BME280;41562;44.330;23.802;2022-07-03T14:14:32;100236.91;;;30.14;53.89
55675;BME280;41562;44.330;23.802;2022-07-03T14:17:03;100233.72;;;30.19;53.49